sensor_id;sensor_type;location;lat;lon;timestamp;pressure;altitude;pressure_sealevel;temperature;humidity
19748;BME280;10032;51.386;12.516;2024-03-22T00:01:46;100814.16;;;8.12;100.00
19748;BME280;10032;51.386;12.516;2024-03-22T00:04:12;100823.13;;;8.06;100.00
19748;BME280;10032;51.386;12.516;2024-03-22T00:06:38;100811.78;;;7.97;100.00
19748;BME280;10032;51.386;12.516;2024-03-22T00:09:03;100809.28;;;7.96;100.00
19748;BME280;10032;51.386;12.516;2024-03-22T00:11:29;100808.88;;;7.92;100.00
19748;BME280;10032;51.386;12.516;2024-03-22T00:13:54;100806.88;;;7.81;100.00
19748;BME280;10032;51.386;12.516;2024-03-22T00:16:19;100810.03;;;7.72;100.00
19748;BME280;10032;51.386;12.516;2024-03-22T00:18:45;100802.78;;;7.72;100.00
19748;BME280;10032;51.386;12.516;2024-03-22T00:21:10;100806.97;;;7.68;100.00
19748;BME280;10032;51.386;12.516;2024-03-22T00:23:36;100799.09;;;7.60;100.00
19748;BME280;10032;51.386;12.516;2024-03-22T00:26:01;100805.94;;;7.56;100.00
19748;BME280;10032;51.386;12.516;2024-03-22T00:28:26;100793.34;;;7.50;100.00
19748;BME280;10032;51.386;12.516;2024-03-22T00:30:52;100798.13;;;7.48;100.00
19748;BME280;10032;51.386;12.516;2024-03-22T00:33:17;100788.81;;;7.44;100.00
19748;BME280;10032;51.386;12.516;2024-03-22T00:35:42;100789.22;;;7.41;100.00
19748;BME280;10032;51.386;12.516;2024-03-22T00:38:08;100786.13;;;7.38;100.00
19748;BME280;10032;51.386;12.516;2024-03-22T00:40:33;100781.78;;;7.37;100.00
19748;BME280;10032;51.386;12.516;2024-03-22T00:42:58;100783.47;;;7.31;100.00
19748;BME280;10032;51.386;12.516;2024-03-22T00:45:24;100784.09;;;7.27;100.00
19748;BME280;10032;51.386;12.516;2024-03-22T00:47:49;100779.16;;;7.24;100.00
19748;BME280;10032;51.386;12.516;2024-03-22T00:50:15;100779.34;;;7.22;100.00
19748;BME280;10032;51.386;12.516;2024-03-22T00:52:40;100768.97;;;7.19;100.00
19748;BME280;10032;51.386;12.516;2024-03-22T00:55:07;100770.03;;;7.12;100.00
19748;BME280;10032;51.386;12.516;2024-03-22T00:57:32;100766.53;;;7.11;100.00
19748;BME280;10032;51.386;12.516;2024-03-22T00:59:57;100765.09;;;7.09;100.00
19748;BME280;10032;51.386;12.516;2024-03-22T01:02:23;100754.94;;;7.04;100.00
19748;BME280;10032;51.386;12.516;2024-03-22T01:04:48;100754.34;;;7.02;100.00
19748;BME280;10032;51.386;12.516;2024-03-22T01:07:14;100756.19;;;7.02;100.00
19748;BME280;10032;51.386;12.516;2024-03-22T01:09:39;100747.91;;;7.03;100.00
19748;BME280;10032;51.386;12.516;2024-03-22T01:12:05;100741.91;;;7.01;100.00
19748;BME280;10032;51.386;12.516;2024-03-22T01:14:30;100738.78;;;7.04;100.00
19748;BME280;10032;51.386;12.516;2024-03-22T01:16:56;100734.22;;;7.05;100.00
19748;BME280;10032;51.386;12.516;2024-03-22T01:19:22;100736.72;;;7.00;100.00
19748;BME280;10032;51.386;12.516;2024-03-22T01:21:48;100724.69;;;7.02;100.00
19748;BME280;10032;51.386;12.516;2024-03-22T01:24:13;100724.28;;;7.05;100.00
19748;BME280;10032;51.386;12.516;2024-03-22T01:26:39;100720.97;;;7.03;100.00
19748;BME280;10032;51.386;12.516;2024-03-22T01:29:04;100716.41;;;7.04;100.00
19748;BME280;10032;51.386;12.516;2024-03-22T01:31:30;100710.38;;;7.08;100.00
19748;BME280;10032;51.386;12.516;2024-03-22T01:33:55;100717.41;;;7.09;100.00
19748;BME280;10032;51.386;12.516;2024-03-22T01:36:20;100707.28;;;7.11;100.00
19748;BME280;10032;51.386;12.516;2024-03-22T01:38:46;100714.72;;;7.09;100.00
19748;BME280;10032;51.386;12.516;2024-03-22T01:41:11;100709.34;;;7.09;100.00
19748;BME280;10032;51.386;12.516;2024-03-22T01:43:36;100702.75;;;7.05;100.00
19748;BME280;10032;51.386;12.516;2024-03-22T01:46:02;100698.38;;;7.04;100.00
19748;BME280;10032;51.386;12.516;2024-03-22T01:48:27;100690.28;;;7.04;100.00
19748;BME280;10032;51.386;12.516;2024-03-22T01:50:53;100695.69;;;7.04;100.00
19748;BME280;10032;51.386;12.516;2024-03-22T01:53:19;100691.13;;;7.05;100.00
19748;BME280;10032;51.386;12.516;2024-03-22T01:55:44;100682.19;;;7.04;100.00
19748;BME280;10032;51.386;12.516;2024-03-22T01:58:10;100673.72;;;7.01;100.00
19748;BME280;10032;51.386;12.516;2024-03-22T02:00:37;100677.47;;;7.00;100.00
19748;BME280;10032;51.386;12.516;2024-03-22T02:03:03;100669.19;;;7.01;100.00
19748;BME280;10032;51.386;12.516;2024-03-22T02:05:28;100666.50;;;7.01;100.00
19748;BME280;10032;51.386;12.516;2024-03-22T02:07:54;100664.22;;;6.98;100.00
19748;BME280;10032;51.386;12.516;2024-03-22T02:10:19;100656.75;;;7.00;100.00
19748;BME280;10032;51.386;12.516;2024-03-22T02:12:45;100651.38;;;7.00;100.00
19748;BME280;10032;51.386;12.516;2024-03-22T02:15:11;100653.44;;;6.98;100.00
19748;BME280;10032;51.386;12.516;2024-03-22T02:17:36;100652.19;;;7.01;100.00
19748;BME280;10032;51.386;12.516;2024-03-22T02:20:02;100645.97;;;7.00;100.00
19748;BME280;10032;51.386;12.516;2024-03-22T02:22:29;100656.53;;;7.02;100.00
19748;BME280;10032;51.386;12.516;2024-03-22T02:24:55;100643.91;;;7.02;100.00
19748;BME280;10032;51.386;12.516;2024-03-22T02:27:20;100643.91;;;7.02;100.00
19748;BME280;10032;51.386;12.516;2024-03-22T02:29:46;100643.06;;;7.02;100.00
19748;BME280;10032;51.386;12.516;2024-03-22T02:32:11;100640.16;;;7.03;100.00
19748;BME280;10032;51.386;12.516;2024-03-22T02:34:37;100626.47;;;7.05;100.00
19748;BME280;10032;51.386;12.516;2024-03-22T02:37:02;100624.38;;;7.07;100.00
19748;BME280;10032;51.386;12.516;2024-03-22T02:39:28;100619.41;;;7.10;100.00
19748;BME280;10032;51.386;12.516;2024-03-22T02:41:54;100620.59;;;7.14;100.00
19748;BME280;10032;51.386;12.516;2024-03-22T02:44:19;100614.81;;;7.17;100.00
19748;BME280;10032;51.386;12.516;2024-03-22T02:46:45;100614.81;;;7.17;100.00
19748;BME280;10032;51.386;12.516;2024-03-22T02:49:10;100621.84;;;7.18;100.00
19748;BME280;10032;51.386;12.516;2024-03-22T02:51:35;100623.47;;;7.19;100.00
19748;BME280;10032;51.386;12.516;2024-03-22T02:54:01;100614.59;;;7.19;100.00
19748;BME280;10032;51.386;12.516;2024-03-22T02:56:27;100605.69;;;7.18;100.00
19748;BME280;10032;51.386;12.516;2024-03-22T02:58:52;100599.22;;;7.19;100.00
19748;BME280;10032;51.386;12.516;2024-03-22T03:01:18;100599.63;;;7.23;100.00
19748;BME280;10032;51.386;12.516;2024-03-22T03:03:43;100597.34;;;7.26;100.00
19748;BME280;10032;51.386;12.516;2024-03-22T03:06:09;100598.16;;;7.27;100.00
19748;BME280;10032;51.386;12.516;2024-03-22T03:08:35;100596.31;;;7.27;100.00
19748;BME280;10032;51.386;12.516;2024-03-22T03:11:03;100597.34;;;7.26;100.00
19748;BME280;10032;51.386;12.516;2024-03-22T03:13:28;100600.63;;;7.28;100.00
19748;BME280;10032;51.386;12.516;2024-03-22T03:15:54;100596.47;;;7.32;100.00
19748;BME280;10032;51.386;12.516;2024-03-22T03:18:19;100592.72;;;7.33;100.00
19748;BME280;10032;51.386;12.516;2024-03-22T03:20:44;100592.31;;;7.36;100.00
19748;BME280;10032;51.386;12.516;2024-03-22T03:23:10;100594.16;;;7.36;100.00
19748;BME280;10032;51.386;12.516;2024-03-22T03:25:35;100586.09;;;7.36;100.00
19748;BME280;10032;51.386;12.516;2024-03-22T03:28:01;100582.97;;;7.39;100.00
19748;BME280;10032;51.386;12.516;2024-03-22T03:30:26;100575.66;;;7.46;100.00
19748;BME280;10032;51.386;12.516;2024-03-22T03:32:51;100573.94;;;7.51;100.00
19748;BME280;10032;51.386;12.516;2024-03-22T03:35:17;100569.75;;;7.55;100.00
19748;BME280;10032;51.386;12.516;2024-03-22T03:37:42;100566.38;;;7.60;100.00
19748;BME280;10032;51.386;12.516;2024-03-22T03:40:08;100557.19;;;7.67;100.00
19748;BME280;10032;51.386;12.516;2024-03-22T03:42:33;100557.81;;;7.69;100.00
19748;BME280;10032;51.386;12.516;2024-03-22T03:44:59;100561.09;;;7.71;100.00
19748;BME280;10032;51.386;12.516;2024-03-22T03:47:24;100556.34;;;7.73;100.00
19748;BME280;10032;51.386;12.516;2024-03-22T03:49:50;100550.69;;;7.75;100.00
19748;BME280;10032;51.386;12.516;2024-03-22T03:52:15;100543.66;;;7.74;100.00
19748;BME280;10032;51.386;12.516;2024-03-22T03:54:40;100538.06;;;7.75;100.00
19748;BME280;10032;51.386;12.516;2024-03-22T03:57:06;100543.00;;;7.78;100.00
19748;BME280;10032;51.386;12.516;2024-03-22T03:59:31;100537.59;;;7.78;100.00
19748;BME280;10032;51.386;12.516;2024-03-22T04:01:56;100537.59;;;7.78;100.00
19748;BME280;10032;51.386;12.516;2024-03-22T04:04:22;100537.16;;;7.81;100.00
19748;BME280;10032;51.386;12.516;2024-03-22T04:06:47;100528.66;;;7.84;100.00
19748;BME280;10032;51.386;12.516;2024-03-22T04:09:13;100520.09;;;7.87;100.00
19748;BME280;10032;51.386;12.516;2024-03-22T04:11:38;100516.34;;;7.88;100.00
19748;BME280;10032;51.386;12.516;2024-03-22T04:14:04;100523.16;;;7.91;100.00
19748;BME280;10032;51.386;12.516;2024-03-22T04:16:31;100517.53;;;7.92;100.00
19748;BME280;10032;51.386;12.516;2024-03-22T04:18:56;100506.53;;;7.94;100.00
19748;BME280;10032;51.386;12.516;2024-03-22T04:21:22;100500.31;;;7.93;100.00
19748;BME280;10032;51.386;12.516;2024-03-22T04:23:47;100498.44;;;7.94;100.00
19748;BME280;10032;51.386;12.516;2024-03-22T04:26:13;100500.56;;;7.92;100.00
19748;BME280;10032;51.386;12.516;2024-03-22T04:28:38;100486.81;;;7.93;100.00
19748;BME280;10032;51.386;12.516;2024-03-22T04:31:06;100493.22;;;7.99;100.00
19748;BME280;10032;51.386;12.516;2024-03-22T04:33:33;100495.69;;;8.00;100.00
19748;BME280;10032;51.386;12.516;2024-03-22T04:35:59;100496.28;;;8.02;100.00
19748;BME280;10032;51.386;12.516;2024-03-22T04:38:26;100483.84;;;8.01;100.00
19748;BME280;10032;51.386;12.516;2024-03-22T04:40:52;100475.53;;;8.03;100.00
19748;BME280;10032;51.386;12.516;2024-03-22T04:43:18;100469.88;;;8.04;100.00
19748;BME280;10032;51.386;12.516;2024-03-22T04:45:44;100470.72;;;8.05;100.00
19748;BME280;10032;51.386;12.516;2024-03-22T04:48:09;100465.91;;;8.07;100.00
19748;BME280;10032;51.386;12.516;2024-03-22T04:50:35;100466.75;;;8.07;100.00
19748;BME280;10032;51.386;12.516;2024-03-22T04:53:01;100465.25;;;8.11;100.00
19748;BME280;10032;51.386;12.516;2024-03-22T04:55:27;100461.94;;;8.09;100.00
19748;BME280;10032;51.386;12.516;2024-03-22T04:57:52;100466.31;;;8.10;100.00
19748;BME280;10032;51.386;12.516;2024-03-22T05:00:18;100452.19;;;8.08;100.00
19748;BME280;10032;51.386;12.516;2024-03-22T05:02:44;100462.56;;;8.11;100.00
19748;BME280;10032;51.386;12.516;2024-03-22T05:05:09;100458.81;;;8.12;100.00
19748;BME280;10032;51.386;12.516;2024-03-22T05:07:35;100461.13;;;8.09;100.00
19748;BME280;10032;51.386;12.516;2024-03-22T05:10:01;100463.34;;;8.12;100.00
19748;BME280;10032;51.386;12.516;2024-03-22T05:12:26;100455.03;;;8.13;100.00
19748;BME280;10032;51.386;12.516;2024-03-22T05:14:52;100447.53;;;8.15;100.00
19748;BME280;10032;51.386;12.516;2024-03-22T05:17:17;100448.22;;;8.11;100.00
19748;BME280;10032;51.386;12.516;2024-03-22T05:19:42;100445.09;;;8.14;100.00
19748;BME280;10032;51.386;12.516;2024-03-22T05:22:08;100442.59;;;8.12;100.00
19748;BME280;10032;51.386;12.516;2024-03-22T05:24:33;100432.19;;;8.16;100.00
19748;BME280;10032;51.386;12.516;2024-03-22T05:26:59;100434.22;;;8.20;100.00
19748;BME280;10032;51.386;12.516;2024-03-22T05:29:25;100435.06;;;8.21;100.00
19748;BME280;10032;51.386;12.516;2024-03-22T05:31:50;100439.19;;;8.23;100.00
19748;BME280;10032;51.386;12.516;2024-03-22T05:34:17;100433.34;;;8.26;100.00
19748;BME280;10032;51.386;12.516;2024-03-22T05:36:43;100438.03;;;8.31;100.00
19748;BME280;10032;51.386;12.516;2024-03-22T05:39:08;100443.00;;;8.34;100.00
19748;BME280;10032;51.386;12.516;2024-03-22T05:41:35;100443.94;;;8.39;100.00
19748;BME280;10032;51.386;12.516;2024-03-22T05:44:01;100443.03;;;8.45;100.00
19748;BME280;10032;51.386;12.516;2024-03-22T05:46:26;100436.72;;;8.51;100.00
19748;BME280;10032;51.386;12.516;2024-03-22T05:48:51;100427.59;;;8.52;100.00
19748;BME280;10032;51.386;12.516;2024-03-22T05:51:17;100429.59;;;8.57;100.00
19748;BME280;10032;51.386;12.516;2024-03-22T05:53:43;100420.41;;;8.58;100.00
19748;BME280;10032;51.386;12.516;2024-03-22T05:56:09;100418.09;;;8.61;100.00
19748;BME280;10032;51.386;12.516;2024-03-22T05:58:34;100421.97;;;8.65;100.00
19748;BME280;10032;51.386;12.516;2024-03-22T06:01:02;100416.13;;;8.68;100.00
19748;BME280;10032;51.386;12.516;2024-03-22T06:03:28;100420.25;;;8.71;100.00
19748;BME280;10032;51.386;12.516;2024-03-22T06:05:53;100425.16;;;8.74;100.00
19748;BME280;10032;51.386;12.516;2024-03-22T06:08:21;100418.69;;;8.75;100.00
19748;BME280;10032;51.386;12.516;2024-03-22T06:10:47;100423.44;;;8.79;100.00
19748;BME280;10032;51.386;12.516;2024-03-22T06:13:12;100417.09;;;8.85;100.00
19748;BME280;10032;51.386;12.516;2024-03-22T06:15:38;100421.09;;;8.94;100.00
19748;BME280;10032;51.386;12.516;2024-03-22T06:18:03;100418.16;;;8.96;100.00
19748;BME280;10032;51.386;12.516;2024-03-22T06:20:29;100412.31;;;8.99;100.00
19748;BME280;10032;51.386;12.516;2024-03-22T06:22:55;100414.31;;;9.03;100.00
19748;BME280;10032;51.386;12.516;2024-03-22T06:25:20;100412.91;;;9.12;100.00
19748;BME280;10032;51.386;12.516;2024-03-22T06:27:46;100413.63;;;9.19;100.00
19748;BME280;10032;51.386;12.516;2024-03-22T06:30:11;100413.97;;;9.23;100.00
19748;BME280;10032;51.386;12.516;2024-03-22T06:32:37;100407.66;;;9.29;100.00
19748;BME280;10032;51.386;12.516;2024-03-22T06:35:03;100406.22;;;9.38;100.00
19748;BME280;10032;51.386;12.516;2024-03-22T06:37:28;100399.06;;;9.43;100.00
19748;BME280;10032;51.386;12.516;2024-03-22T06:39:53;100396.81;;;9.52;100.00
19748;BME280;10032;51.386;12.516;2024-03-22T06:42:19;100396.69;;;9.58;100.00
19748;BME280;10032;51.386;12.516;2024-03-22T06:44:44;100390.09;;;9.66;100.00
19748;BME280;10032;51.386;12.516;2024-03-22T06:47:10;100388.41;;;9.76;100.00
19748;BME280;10032;51.386;12.516;2024-03-22T06:49:35;100384.75;;;9.82;100.00
19748;BME280;10032;51.386;12.516;2024-03-22T06:52:01;100377.31;;;9.89;100.00
19748;BME280;10032;51.386;12.516;2024-03-22T06:54:26;100378.34;;;10.00;100.00
19748;BME280;10032;51.386;12.516;2024-03-22T06:56:52;100377.19;;;10.07;100.00
19748;BME280;10032;51.386;12.516;2024-03-22T06:59:17;100375.75;;;10.16;100.00
19748;BME280;10032;51.386;12.516;2024-03-22T07:01:43;100368.06;;;10.25;100.00
19748;BME280;10032;51.386;12.516;2024-03-22T07:04:08;100367.91;;;10.31;100.00
19748;BME280;10032;51.386;12.516;2024-03-22T07:06:34;100364.25;;;10.37;100.00
19748;BME280;10032;51.386;12.516;2024-03-22T07:08:59;100355.16;;;10.43;100.00
19748;BME280;10032;51.386;12.516;2024-03-22T07:11:25;100356.28;;;10.47;100.00
19748;BME280;10032;51.386;12.516;2024-03-22T07:13:50;100356.38;;;10.52;100.00
19748;BME280;10032;51.386;12.516;2024-03-22T07:16:15;100362.56;;;10.64;100.00
19748;BME280;10032;51.386;12.516;2024-03-22T07:18:41;100362.66;;;10.69;100.00
19748;BME280;10032;51.386;12.516;2024-03-22T07:21:07;100360.03;;;10.74;100.00
19748;BME280;10032;51.386;12.516;2024-03-22T07:23:32;100349.53;;;10.78;100.00
19748;BME280;10032;51.386;12.516;2024-03-22T07:25:58;100354.75;;;10.84;100.00
19748;BME280;10032;51.386;12.516;2024-03-22T07:28:24;100346.69;;;10.89;100.00
19748;BME280;10032;51.386;12.516;2024-03-22T07:30:50;100351.41;;;10.94;100.00
19748;BME280;10032;51.386;12.516;2024-03-22T07:33:15;100343.09;;;11.00;100.00
19748;BME280;10032;51.386;12.516;2024-03-22T07:35:43;100354.59;;;11.07;100.00
19748;BME280;10032;51.386;12.516;2024-03-22T07:38:09;100355.25;;;11.14;100.00
19748;BME280;10032;51.386;12.516;2024-03-22T07:40:34;100362.47;;;11.25;100.00
19748;BME280;10032;51.386;12.516;2024-03-22T07:43:00;100373.06;;;11.27;100.00
19748;BME280;10032;51.386;12.516;2024-03-22T07:45:31;100370.00;;;11.40;100.00
19748;BME280;10032;51.386;12.516;2024-03-22T07:47:57;100374.69;;;11.44;100.00
19748;BME280;10032;51.386;12.516;2024-03-22T07:50:22;100381.59;;;11.52;100.00
19748;BME280;10032;51.386;12.516;2024-03-22T07:52:47;100369.50;;;11.59;100.00
19748;BME280;10032;51.386;12.516;2024-03-22T07:55:13;100372.03;;;11.66;100.00
19748;BME280;10032;51.386;12.516;2024-03-22T07:57:38;100363.69;;;11.72;100.00
19748;BME280;10032;51.386;12.516;2024-03-22T08:00:04;100347.72;;;11.76;100.00
19748;BME280;10032;51.386;12.516;2024-03-22T08:02:30;100346.53;;;11.88;100.00
19748;BME280;10032;51.386;12.516;2024-03-22T08:04:55;100341.16;;;11.93;100.00
19748;BME280;10032;51.386;12.516;2024-03-22T08:07:20;100348.09;;;12.06;100.00
19748;BME280;10032;51.386;12.516;2024-03-22T08:09:46;100344.06;;;12.08;100.00
19748;BME280;10032;51.386;12.516;2024-03-22T08:12:11;100350.16;;;12.20;100.00
19748;BME280;10032;51.386;12.516;2024-03-22T08:14:37;100355.16;;;12.28;100.00
19748;BME280;10032;51.386;12.516;2024-03-22T08:17:02;100346.03;;;12.39;100.00
19748;BME280;10032;51.386;12.516;2024-03-22T08:19:28;100341.97;;;12.42;100.00
19748;BME280;10032;51.386;12.516;2024-03-22T08:21:53;100340.59;;;12.39;100.00
19748;BME280;10032;51.386;12.516;2024-03-22T08:24:19;100341.44;;;12.45;100.00
19748;BME280;10032;51.386;12.516;2024-03-22T08:26:44;100339.06;;;12.48;100.00
19748;BME280;10032;51.386;12.516;2024-03-22T08:29:15;100327.97;;;12.55;100.00
19748;BME280;10032;51.386;12.516;2024-03-22T08:31:41;100338.84;;;12.55;100.00
19748;BME280;10032;51.386;12.516;2024-03-22T08:34:07;100337.75;;;12.56;100.00
19748;BME280;10032;51.386;12.516;2024-03-22T08:36:33;100329.44;;;12.67;100.00
19748;BME280;10032;51.386;12.516;2024-03-22T08:38:58;100326.34;;;12.85;100.00
19748;BME280;10032;51.386;12.516;2024-03-22T08:41:23;100323.28;;;13.08;100.00
19748;BME280;10032;51.386;12.516;2024-03-22T08:43:49;100316.88;;;13.29;100.00
19748;BME280;10032;51.386;12.516;2024-03-22T08:46:14;100318.63;;;13.45;100.00
19748;BME280;10032;51.386;12.516;2024-03-22T08:48:40;100319.75;;;13.54;100.00
19748;BME280;10032;51.386;12.516;2024-03-22T08:51:05;100316.50;;;13.62;100.00
19748;BME280;10032;51.386;12.516;2024-03-22T08:53:31;100318.75;;;13.70;100.00
19748;BME280;10032;51.386;12.516;2024-03-22T08:55:56;100322.03;;;13.77;100.00
19748;BME280;10032;51.386;12.516;2024-03-22T08:58:21;100307.91;;;13.90;100.00
19748;BME280;10032;51.386;12.516;2024-03-22T09:00:47;100298.16;;;14.09;100.00
19748;BME280;10032;51.386;12.516;2024-03-22T09:03:12;100296.56;;;14.13;100.00
19748;BME280;10032;51.386;12.516;2024-03-22T09:05:40;100281.31;;;14.22;100.00
19748;BME280;10032;51.386;12.516;2024-03-22T09:08:06;100277.25;;;14.25;100.00
19748;BME280;10032;51.386;12.516;2024-03-22T09:10:31;100284.38;;;14.36;100.00
19748;BME280;10032;51.386;12.516;2024-03-22T09:12:57;100281.91;;;14.44;100.00
19748;BME280;10032;51.386;12.516;2024-03-22T09:15:22;100281.94;;;14.49;100.00
19748;BME280;10032;51.386;12.516;2024-03-22T09:17:48;100278.09;;;14.55;100.00
19748;BME280;10032;51.386;12.516;2024-03-22T09:20:13;100270.47;;;14.57;100.00
19748;BME280;10032;51.386;12.516;2024-03-22T09:22:39;100269.94;;;14.60;100.00
19748;BME280;10032;51.386;12.516;2024-03-22T09:25:05;100265.00;;;14.67;100.00
19748;BME280;10032;51.386;12.516;2024-03-22T09:27:31;100263.38;;;14.81;100.00
19748;BME280;10032;51.386;12.516;2024-03-22T09:29:57;100248.63;;;14.97;100.00
19748;BME280;10032;51.386;12.516;2024-03-22T09:32:23;100261.66;;;15.15;100.00
19748;BME280;10032;51.386;12.516;2024-03-22T09:34:49;100251.50;;;15.41;100.00
19748;BME280;10032;51.386;12.516;2024-03-22T09:37:15;100253.91;;;15.57;100.00
19748;BME280;10032;51.386;12.516;2024-03-22T09:39:40;100247.28;;;15.73;100.00
19748;BME280;10032;51.386;12.516;2024-03-22T09:42:06;100257.69;;;15.71;100.00
19748;BME280;10032;51.386;12.516;2024-03-22T09:44:33;100248.97;;;15.64;100.00
19748;BME280;10032;51.386;12.516;2024-03-22T09:46:59;100240.75;;;15.69;100.00
19748;BME280;10032;51.386;12.516;2024-03-22T09:49:25;100234.75;;;15.67;100.00
19748;BME280;10032;51.386;12.516;2024-03-22T09:51:52;100234.97;;;15.76;100.00
19748;BME280;10032;51.386;12.516;2024-03-22T09:54:18;100227.09;;;15.69;100.00
19748;BME280;10032;51.386;12.516;2024-03-22T09:56:43;100229.81;;;15.69;100.00
19748;BME280;10032;51.386;12.516;2024-03-22T09:59:12;100226.31;;;15.64;100.00
19748;BME280;10032;51.386;12.516;2024-03-22T10:01:39;100224.34;;;15.69;100.00
19748;BME280;10032;51.386;12.516;2024-03-22T10:04:05;100222.19;;;15.71;100.00
19748;BME280;10032;51.386;12.516;2024-03-22T10:06:31;100231.66;;;15.84;100.00
19748;BME280;10032;51.386;12.516;2024-03-22T10:09:00;100218.81;;;15.84;100.00
19748;BME280;10032;51.386;12.516;2024-03-22T10:11:27;100211.94;;;15.92;100.00
19748;BME280;10032;51.386;12.516;2024-03-22T10:13:52;100204.50;;;16.02;100.00
19748;BME280;10032;51.386;12.516;2024-03-22T10:16:17;100211.56;;;16.08;100.00
19748;BME280;10032;51.386;12.516;2024-03-22T10:18:43;100212.28;;;16.19;100.00
19748;BME280;10032;51.386;12.516;2024-03-22T10:21:09;100208.41;;;16.25;100.00
19748;BME280;10032;51.386;12.516;2024-03-22T10:23:34;100208.56;;;16.43;100.00
19748;BME280;10032;51.386;12.516;2024-03-22T10:26:00;100197.41;;;16.68;100.00
19748;BME280;10032;51.386;12.516;2024-03-22T10:28:26;100199.34;;;16.68;100.00
19748;BME280;10032;51.386;12.516;2024-03-22T10:30:52;100196.16;;;16.56;100.00
19748;BME280;10032;51.386;12.516;2024-03-22T10:33:21;100190.41;;;16.57;100.00
19748;BME280;10032;51.386;12.516;2024-03-22T10:35:52;100186.50;;;16.63;100.00
19748;BME280;10032;51.386;12.516;2024-03-22T10:38:19;100183.16;;;16.71;100.00
19748;BME280;10032;51.386;12.516;2024-03-22T10:40:46;100181.50;;;16.70;100.00
19748;BME280;10032;51.386;12.516;2024-03-22T10:43:13;100181.03;;;16.63;100.00
19748;BME280;10032;51.386;12.516;2024-03-22T10:45:40;100182.66;;;16.64;100.00
19748;BME280;10032;51.386;12.516;2024-03-22T10:48:11;100186.50;;;16.63;100.00
19748;BME280;10032;51.386;12.516;2024-03-22T10:50:41;100170.75;;;16.55;100.00
19748;BME280;10032;51.386;12.516;2024-03-22T10:53:19;100168.53;;;16.57;99.47
19748;BME280;10032;51.386;12.516;2024-03-22T10:55:47;100168.28;;;16.54;99.47
19748;BME280;10032;51.386;12.516;2024-03-22T10:58:15;100164.16;;;16.56;99.19
19748;BME280;10032;51.386;12.516;2024-03-22T11:00:42;100164.56;;;16.68;99.17
19748;BME280;10032;51.386;12.516;2024-03-22T11:03:08;100159.22;;;16.82;99.51
19748;BME280;10032;51.386;12.516;2024-03-22T11:05:34;100144.28;;;16.98;99.21
19748;BME280;10032;51.386;12.516;2024-03-22T11:08:04;100155.09;;;17.08;98.24
19748;BME280;10032;51.386;12.516;2024-03-22T11:10:35;100156.28;;;17.02;96.16
19748;BME280;10032;51.386;12.516;2024-03-22T11:13:06;100139.78;;;17.07;96.88
19748;BME280;10032;51.386;12.516;2024-03-22T11:15:33;100139.44;;;17.13;97.00
19748;BME280;10032;51.386;12.516;2024-03-22T11:17:59;100133.84;;;17.23;97.27
19748;BME280;10032;51.386;12.516;2024-03-22T11:20:28;100126.19;;;17.44;97.10
19748;BME280;10032;51.386;12.516;2024-03-22T11:22:56;100132.25;;;17.59;96.86
19748;BME280;10032;51.386;12.516;2024-03-22T11:25:21;100121.69;;;17.90;97.16
19748;BME280;10032;51.386;12.516;2024-03-22T11:27:47;100121.03;;;18.11;95.01
19748;BME280;10032;51.386;12.516;2024-03-22T11:30:12;100117.47;;;18.29;94.72
19748;BME280;10032;51.386;12.516;2024-03-22T11:32:39;100111.00;;;18.39;93.28
19748;BME280;10032;51.386;12.516;2024-03-22T11:35:09;100104.09;;;18.41;92.53
19748;BME280;10032;51.386;12.516;2024-03-22T11:37:35;100093.81;;;18.33;91.34
19748;BME280;10032;51.386;12.516;2024-03-22T11:40:01;100089.50;;;18.27;91.03
19748;BME280;10032;51.386;12.516;2024-03-22T11:42:31;100082.19;;;18.23;90.77
19748;BME280;10032;51.386;12.516;2024-03-22T11:44:56;100078.09;;;18.20;90.57
19748;BME280;10032;51.386;12.516;2024-03-22T11:47:23;100082.06;;;18.14;90.25
19748;BME280;10032;51.386;12.516;2024-03-22T11:49:48;100073.13;;;18.22;90.41
19748;BME280;10032;51.386;12.516;2024-03-22T11:52:14;100075.97;;;18.17;88.98
19748;BME280;10032;51.386;12.516;2024-03-22T11:54:40;100062.88;;;18.14;87.92
19748;BME280;10032;51.386;12.516;2024-03-22T11:57:05;100073.91;;;18.09;88.14
19748;BME280;10032;51.386;12.516;2024-03-22T11:59:31;100068.06;;;18.16;87.97
19748;BME280;10032;51.386;12.516;2024-03-22T12:01:56;100073.13;;;18.22;88.01
19748;BME280;10032;51.386;12.516;2024-03-22T12:04:22;100062.88;;;18.28;87.45
19748;BME280;10032;51.386;12.516;2024-03-22T12:06:48;100063.38;;;18.30;87.58
19748;BME280;10032;51.386;12.516;2024-03-22T12:09:14;100054.72;;;18.41;88.27
19748;BME280;10032;51.386;12.516;2024-03-22T12:11:39;100050.94;;;18.51;87.45
19748;BME280;10032;51.386;12.516;2024-03-22T12:14:05;100043.84;;;18.50;87.19
19748;BME280;10032;51.386;12.516;2024-03-22T12:16:31;100059.19;;;18.64;86.62
19748;BME280;10032;51.386;12.516;2024-03-22T12:18:57;100035.41;;;18.60;86.06
19748;BME280;10032;51.386;12.516;2024-03-22T12:21:23;100033.59;;;18.55;86.03
19748;BME280;10032;51.386;12.516;2024-03-22T12:23:49;100029.94;;;18.60;84.14
19748;BME280;10032;51.386;12.516;2024-03-22T12:26:14;100015.91;;;18.61;85.11
19748;BME280;10032;51.386;12.516;2024-03-22T12:28:40;100013.16;;;18.61;85.09
19748;BME280;10032;51.386;12.516;2024-03-22T12:31:05;100004.81;;;18.66;85.10